createdAt,value
2023-02-19T00:03:05.614Z,13.69
2023-02-19T00:05:15.909Z,13.78
2023-02-19T00:08:26.154Z,13.68
2023-02-19T00:11:15.919Z,13.72
2023-02-19T00:14:05.646Z,13.69
2023-02-19T00:16:05.739Z,13.68
2023-02-19T00:19:05.672Z,13.76
2023-02-19T00:21:15.893Z,13.78
2023-02-19T00:23:15.882Z,13.7
2023-02-19T00:27:05.606Z,13.28
2023-02-19T00:29:05.630Z,13.1
2023-02-19T00:31:15.928Z,13.03
2023-02-19T00:34:15.900Z,12.95
2023-02-19T00:37:05.580Z,12.99
2023-02-19T00:39:05.868Z,13.06
2023-02-19T00:42:05.594Z,13.17
2023-02-19T00:44:15.865Z,13.23
2023-02-19T00:47:05.577Z,13.37
2023-02-19T00:49:05.655Z,13.48
2023-02-19T00:52:16.913Z,13.56
2023-02-19T00:54:26.230Z,13.55
2023-02-19T00:59:05.612Z,13.58
2023-02-19T01:01:05.665Z,13.61
2023-02-19T01:04:15.873Z,13.55
2023-02-19T01:06:15.915Z,13.63
2023-02-19T01:09:05.634Z,13.75
2023-02-19T01:11:05.652Z,13.76
2023-02-19T01:14:16.923Z,13.78
2023-02-19T01:17:15.972Z,13.66
2023-02-19T01:21:05.598Z,13.62
2023-02-19T01:23:05.635Z,13.62
2023-02-19T01:25:05.628Z,13.68
2023-02-19T01:27:27.868Z,13.7
2023-02-19T01:29:31.264Z,13.71
2023-02-19T01:32:15.972Z,13.62
2023-02-19T01:35:05.632Z,13.55
2023-02-19T01:38:05.573Z,13.58
2023-02-19T01:41:05.589Z,13.59
2023-02-19T01:45:05.559Z,13.56
2023-02-19T01:47:05.589Z,13.54
2023-02-19T01:49:15.907Z,13.55
2023-02-19T01:52:05.596Z,13.63
2023-02-19T01:54:27.831Z,13.68
2023-02-19T01:57:15.881Z,13.77
2023-02-19T02:01:05.599Z,13.75
2023-02-19T02:03:05.578Z,13.62
2023-02-19T02:05:05.600Z,13.61
2023-02-19T02:08:15.949Z,13.65
2023-02-19T02:11:05.583Z,13.67
2023-02-19T02:13:27.870Z,13.67
2023-02-19T02:16:16.029Z,13.54
2023-02-19T02:19:05.619Z,13.57
2023-02-19T02:22:05.611Z,13.4
2023-02-19T02:25:05.651Z,13.43
2023-02-19T02:27:15.906Z,13.43
2023-02-19T02:30:05.595Z,13.45
2023-02-19T02:32:05.619Z,13.5
2023-02-19T02:35:05.618Z,13.48
2023-02-19T02:37:16.000Z,13.39
2023-02-19T02:40:05.593Z,13.39
2023-02-19T02:43:05.639Z,13.3
2023-02-19T02:45:05.622Z,13.3
2023-02-19T02:47:15.903Z,13.36
2023-02-19T02:50:06.669Z,13.4
2023-02-19T02:52:05.635Z,13.36
2023-02-19T02:55:05.611Z,13.37
2023-02-19T02:57:15.880Z,13.26
2023-02-19T03:01:05.664Z,13.15
2023-02-19T03:05:05.589Z,13.19
2023-02-19T03:07:15.880Z,13.15
2023-02-19T03:10:05.642Z,13.17
2023-02-19T03:13:05.626Z,13.11
2023-02-19T03:15:05.643Z,13.08
2023-02-19T03:17:15.875Z,13.06
2023-02-19T03:20:05.630Z,12.95
2023-02-19T03:23:05.691Z,13.02
2023-02-19T03:26:26.182Z,13.08
2023-02-19T03:29:05.579Z,13.17
2023-02-19T03:31:05.710Z,13.15
2023-02-19T03:33:05.654Z,13.15
2023-02-19T03:36:16.924Z,13.18
2023-02-19T03:39:15.917Z,13.05
2023-02-19T03:42:05.606Z,13.05
2023-02-19T03:44:06.672Z,13.03
2023-02-19T03:47:05.576Z,13.01
2023-02-19T03:50:05.581Z,12.91
2023-02-19T03:52:05.618Z,12.87
2023-02-19T03:56:05.618Z,13.06
2023-02-19T03:58:05.634Z,13.09
2023-02-19T04:00:16.918Z,13.14
2023-02-19T04:03:15.881Z,13.23
2023-02-19T04:05:15.896Z,13.24
2023-02-19T04:08:05.646Z,13.27
2023-02-19T04:11:05.622Z,13.18
2023-02-19T04:13:05.618Z,13.11
2023-02-19T04:16:05.659Z,13.11
2023-02-19T04:19:05.605Z,13.12
2023-02-19T04:22:05.622Z,13.16
2023-02-19T04:24:05.636Z,13.18
2023-02-19T04:26:15.897Z,13.12
2023-02-19T04:29:05.694Z,13.17
2023-02-19T04:32:05.638Z,13.23
2023-02-19T04:35:15.873Z,13.22
2023-02-19T04:37:15.904Z,13.15
2023-02-19T04:40:05.619Z,13.16
2023-02-19T04:44:05.657Z,13.25
2023-02-19T04:46:15.949Z,13.25
2023-02-19T04:50:05.633Z,13.21
2023-02-19T04:54:05.630Z,13.22
2023-02-19T04:56:05.703Z,13.2
2023-02-19T04:58:15.891Z,13.18
2023-02-19T05:02:05.643Z,13.24
2023-02-19T05:04:05.792Z,13.25
2023-02-19T05:07:15.892Z,13.21
2023-02-19T05:09:27.885Z,13.19
2023-02-19T05:12:15.891Z,13.18
2023-02-19T05:15:05.602Z,13.1
2023-02-19T05:17:05.608Z,13.1
2023-02-19T05:19:05.715Z,13.09
2023-02-19T05:22:05.621Z,13.06
2023-02-19T05:24:11.216Z,12.99
2023-02-19T05:27:05.608Z,13.11
2023-02-19T05:29:05.630Z,13.14
2023-02-19T05:32:05.654Z,13.09
2023-02-19T05:34:05.629Z,13.11
2023-02-19T05:37:15.914Z,13.13
2023-02-19T05:40:15.911Z,13.08
2023-02-19T05:43:05.599Z,13.05
2023-02-19T05:46:05.651Z,13.09
2023-02-19T05:48:15.887Z,13.17
2023-02-19T05:50:15.914Z,13.13
2023-02-19T05:53:05.614Z,12.98
2023-02-19T05:56:05.602Z,12.88
2023-02-19T05:58:15.889Z,12.85
2023-02-19T06:01:05.604Z,12.85
2023-02-19T06:03:05.591Z,12.82
2023-02-19T06:05:05.698Z,12.84
2023-02-19T06:09:05.577Z,12.92
2023-02-19T06:11:15.889Z,12.92
2023-02-19T06:13:17.778Z,12.97
2023-02-19T06:15:27.865Z,12.98
2023-02-19T06:18:15.896Z,13.02
2023-02-19T06:21:05.615Z,12.93
2023-02-19T06:23:05.594Z,12.86
2023-02-19T06:26:05.738Z,12.8
2023-02-19T06:29:05.674Z,12.81
2023-02-19T06:31:16.019Z,12.81
2023-02-19T06:34:15.934Z,12.88
2023-02-19T06:37:05.620Z,12.8
2023-02-19T06:40:05.644Z,12.74
2023-02-19T06:42:15.926Z,12.66
2023-02-19T06:45:05.601Z,12.73
2023-02-19T06:47:05.600Z,12.73
2023-02-19T06:49:05.628Z,12.81
2023-02-19T06:51:05.647Z,12.83
2023-02-19T06:53:05.630Z,12.87
2023-02-19T06:56:05.643Z,12.93
2023-02-19T06:58:05.625Z,12.94
2023-02-19T07:00:05.696Z,12.88
2023-02-19T07:03:05.728Z,12.63
2023-02-19T07:05:05.629Z,12.62
2023-02-19T07:08:05.623Z,12.67
2023-02-19T07:10:15.915Z,12.67
2023-02-19T07:12:16.920Z,12.66
2023-02-19T07:15:05.621Z,12.73
2023-02-19T07:18:05.662Z,12.68
2023-02-19T07:21:05.650Z,12.67
2023-02-19T07:25:05.694Z,12.8
2023-02-19T07:28:05.669Z,12.83
2023-02-19T07:31:05.674Z,12.89
2023-02-19T07:34:05.637Z,12.81
2023-02-19T07:37:05.657Z,12.72
2023-02-19T07:39:15.890Z,12.7
2023-02-19T07:42:05.642Z,12.7
2023-02-19T07:44:05.701Z,12.72
2023-02-19T07:47:05.646Z,12.72
2023-02-19T07:49:05.633Z,12.7
2023-02-19T07:52:05.680Z,12.7
2023-02-19T07:55:05.640Z,12.73
2023-02-19T07:58:06.265Z,12.72
2023-02-19T08:00:15.912Z,12.74
2023-02-19T08:02:15.907Z,12.78
2023-02-19T08:05:05.625Z,12.81
2023-02-19T08:08:05.612Z,12.91
2023-02-19T08:10:15.895Z,12.95
2023-02-19T08:12:16.009Z,12.99
2023-02-19T08:15:05.632Z,13.1
2023-02-19T08:17:05.644Z,13.07
2023-02-19T08:19:05.659Z,13.09
2023-02-19T08:22:05.630Z,13.1
2023-02-19T08:24:05.639Z,13.11
2023-02-19T08:27:05.608Z,13.17
2023-02-19T08:30:05.757Z,13.28
2023-02-19T08:35:16.995Z,13.37
2023-02-19T08:38:15.920Z,13.38
2023-02-19T08:41:05.628Z,13.25
2023-02-19T08:43:05.645Z,13.25
2023-02-19T08:46:05.610Z,13.19
2023-02-19T08:48:05.626Z,13.22
2023-02-19T08:50:05.653Z,13.26
2023-02-19T08:53:36.505Z,13.32
2023-02-19T08:55:40.851Z,13.38
2023-02-19T08:58:15.890Z,13.4
2023-02-19T09:01:36.535Z,13.41
2023-02-19T09:04:15.922Z,13.32
2023-02-19T09:07:05.640Z,13.31
2023-02-19T09:09:27.861Z,13.31
2023-02-19T09:12:26.215Z,13.31
2023-02-19T09:15:05.599Z,13.32
2023-02-19T09:17:05.663Z,13.25
2023-02-19T09:20:05.608Z,13.26
2023-02-19T09:22:05.647Z,13.25
2023-02-19T09:24:05.656Z,13.27
2023-02-19T09:27:05.664Z,13.26
2023-02-19T09:29:05.680Z,13.29
2023-02-19T09:32:05.712Z,13.28
2023-02-19T09:35:05.757Z,13.29
2023-02-19T09:38:05.687Z,13.29
2023-02-19T09:40:05.708Z,13.27
2023-02-19T09:42:05.748Z,13.3
2023-02-19T09:45:05.622Z,13.3
2023-02-19T09:47:05.711Z,13.31
2023-02-19T09:49:15.946Z,13.3
2023-02-19T09:51:15.944Z,13.31
2023-02-19T09:54:05.636Z,13.36
2023-02-19T09:56:05.659Z,13.42
2023-02-19T09:59:05.663Z,13.45
2023-02-19T10:01:05.729Z,13.45
2023-02-19T10:04:05.663Z,13.44
2023-02-19T10:06:05.678Z,13.49
2023-02-19T10:08:05.701Z,13.52
2023-02-19T10:10:15.938Z,13.53
2023-02-19T10:12:15.924Z,13.56
2023-02-19T10:18:05.685Z,13.63
2023-02-19T10:22:05.671Z,13.64
2023-02-19T10:24:05.650Z,13.62
2023-02-19T10:26:05.651Z,13.6
2023-02-19T10:28:26.210Z,13.62
2023-02-19T10:31:05.681Z,13.68
2023-02-19T10:33:27.896Z,13.7
2023-02-19T10:36:15.908Z,13.76
2023-02-19T10:39:36.557Z,13.79
2023-02-19T10:41:43.145Z,13.8
2023-02-19T10:44:15.883Z,13.8
2023-02-19T10:46:26.295Z,13.81
2023-02-19T10:49:15.905Z,13.82
2023-02-19T10:52:05.673Z,13.8
2023-02-19T10:54:05.644Z,13.77
2023-02-19T10:56:05.670Z,13.78
2023-02-19T10:59:15.927Z,13.7
2023-02-19T11:02:16.019Z,13.67
2023-02-19T11:06:05.668Z,13.61
2023-02-19T11:08:26.288Z,13.63
2023-02-19T11:10:30.619Z,13.67
2023-02-19T11:13:15.942Z,13.68
2023-02-19T11:17:05.811Z,13.67
2023-02-19T11:21:05.669Z,13.72
2023-02-19T11:23:15.922Z,13.75
2023-02-19T11:26:26.225Z,13.8
2023-02-19T11:28:29.617Z,13.85
2023-02-19T11:33:26.527Z,13.86
2023-02-19T11:36:16.012Z,13.92
2023-02-19T11:40:05.663Z,13.98
2023-02-19T11:42:29.471Z,14
2023-02-19T11:45:26.232Z,14.03
2023-02-19T11:48:05.696Z,14.06
2023-02-19T11:50:05.666Z,14.08
2023-02-19T11:53:05.658Z,14.1
2023-02-19T11:55:05.659Z,14.14
2023-02-19T11:57:15.943Z,14.24
2023-02-19T12:00:05.638Z,14.4
2023-02-19T12:04:05.643Z,14.6
2023-02-19T12:06:15.913Z,14.7
2023-02-19T12:09:36.529Z,14.81
2023-02-19T12:12:15.928Z,14.89
2023-02-19T12:14:15.990Z,14.93
2023-02-19T12:17:05.694Z,15.03
2023-02-19T12:20:05.619Z,15.05
2023-02-19T12:22:15.952Z,15.03
2023-02-19T12:25:26.247Z,14.85
2023-02-19T12:27:29.720Z,14.87
2023-02-19T12:30:15.963Z,14.88
2023-02-19T12:33:05.739Z,14.93
2023-02-19T12:37:05.643Z,15
2023-02-19T12:39:05.702Z,15.03
2023-02-19T12:42:15.959Z,15.05
2023-02-19T12:45:05.658Z,15.05
2023-02-19T12:47:27.910Z,15.09
2023-02-19T12:50:15.950Z,15.16
2023-02-19T12:53:26.207Z,15.22
2023-02-19T12:56:15.971Z,15.29
2023-02-19T12:59:05.715Z,15.33
2023-02-19T13:02:05.676Z,15.36
2023-02-19T13:04:58.780Z,15.4
2023-02-19T13:07:05.666Z,15.45
2023-02-19T13:11:05.798Z,15.5
2023-02-19T13:13:05.716Z,15.52
2023-02-19T13:16:05.688Z,15.54
2023-02-19T13:18:05.691Z,15.56
2023-02-19T13:21:05.667Z,15.56
2023-02-19T13:23:05.658Z,15.57
2023-02-19T13:25:05.669Z,15.57
2023-02-19T13:27:05.782Z,15.56
2023-02-19T13:31:05.770Z,15.61
2023-02-19T13:33:15.976Z,15.66
2023-02-19T13:36:05.697Z,15.68
2023-02-19T13:39:05.661Z,15.66
2023-02-19T13:41:05.681Z,15.66
2023-02-19T13:44:05.650Z,15.67
2023-02-19T13:46:05.742Z,15.67
2023-02-19T13:49:05.645Z,15.83
2023-02-19T13:51:05.657Z,15.9
2023-02-19T13:53:05.654Z,16.01
2023-02-19T13:56:05.646Z,16.14
2023-02-19T13:58:15.934Z,16.24
2023-02-19T14:01:06.723Z,16.36
2023-02-19T14:03:05.641Z,16.41
2023-02-19T14:05:05.670Z,16.45
2023-02-19T14:08:05.666Z,16.51
2023-02-19T14:11:05.665Z,16.56
2023-02-19T14:14:05.639Z,16.65
2023-02-19T14:16:05.714Z,16.68
2023-02-19T14:18:05.721Z,16.76
2023-02-19T14:21:05.702Z,16.86
2023-02-19T14:24:05.670Z,16.87
2023-02-19T14:27:05.662Z,16.81
2023-02-19T14:29:05.651Z,16.73
2023-02-19T14:31:05.687Z,16.67
2023-02-19T14:33:10.839Z,16.58
2023-02-19T14:36:05.701Z,16.46
2023-02-19T14:38:05.659Z,16.45
2023-02-19T14:41:05.703Z,16.53
2023-02-19T14:44:05.698Z,16.61
2023-02-19T14:47:05.711Z,16.6
2023-02-19T14:50:05.695Z,16.54
2023-02-19T14:53:05.667Z,16.46
2023-02-19T14:55:05.678Z,16.45
2023-02-19T14:58:05.676Z,16.41
2023-02-19T15:00:05.734Z,16.43
2023-02-19T15:03:05.797Z,16.48
2023-02-19T15:07:05.690Z,16.46
2023-02-19T15:09:05.699Z,16.44
2023-02-19T15:12:05.659Z,16.37
2023-02-19T15:15:05.677Z,16.26
2023-02-19T15:17:05.677Z,16.23
2023-02-19T15:19:05.779Z,16.18
2023-02-19T15:22:05.652Z,16.06
2023-02-19T15:24:05.659Z,16
2023-02-19T15:26:15.976Z,15.94
2023-02-19T15:29:05.691Z,15.89
2023-02-19T15:31:05.741Z,15.87
2023-02-19T15:34:05.682Z,15.84
2023-02-19T15:37:05.695Z,15.76
2023-02-19T15:39:05.725Z,15.74
2023-02-19T15:41:05.715Z,15.7
2023-02-19T15:44:05.684Z,15.62
2023-02-19T15:47:05.703Z,15.57
2023-02-19T15:50:05.678Z,15.51
2023-02-19T15:52:05.785Z,15.48
2023-02-19T15:56:05.685Z,15.39
2023-02-19T15:58:15.950Z,15.35
2023-02-19T16:01:26.262Z,15.3
2023-02-19T16:04:16.076Z,15.29
2023-02-19T16:08:05.731Z,15.32
2023-02-19T16:11:05.692Z,15.29
2023-02-19T16:13:05.708Z,15.25
2023-02-19T16:15:05.707Z,15.16
2023-02-19T16:17:15.954Z,15.17
2023-02-19T16:20:05.736Z,15.1
2023-02-19T16:22:05.672Z,15.1
2023-02-19T16:25:05.706Z,15.1
2023-02-19T16:27:05.710Z,15.09
2023-02-19T16:29:05.728Z,15.07
2023-02-19T16:32:16.055Z,15.04
2023-02-19T16:35:26.261Z,14.99
2023-02-19T16:40:05.741Z,14.91
2023-02-19T16:43:05.682Z,14.83
2023-02-19T16:45:27.523Z,14.77
2023-02-19T16:48:15.988Z,14.68
2023-02-19T16:51:05.678Z,14.68
2023-02-19T16:53:05.724Z,14.69
2023-02-19T16:55:05.680Z,14.7
2023-02-19T16:58:05.685Z,14.73
2023-02-19T17:00:16.004Z,14.73
2023-02-19T17:03:05.697Z,14.74
2023-02-19T17:06:05.688Z,14.75
2023-02-19T17:08:05.669Z,14.76
2023-02-19T17:10:05.704Z,14.75
2023-02-19T17:12:15.970Z,14.75
2023-02-19T17:15:05.677Z,14.76
2023-02-19T17:18:05.672Z,14.77
2023-02-19T17:20:05.672Z,14.73
2023-02-19T17:22:05.677Z,14.71
2023-02-19T17:24:16.078Z,14.71
2023-02-19T17:27:05.709Z,14.73
2023-02-19T17:29:05.717Z,14.76
2023-02-19T17:33:16.253Z,14.77
2023-02-19T17:35:15.990Z,14.76
2023-02-19T17:38:05.729Z,14.76
2023-02-19T17:41:05.702Z,14.72
2023-02-19T17:44:05.737Z,14.72
2023-02-19T17:47:05.740Z,14.64
2023-02-19T17:50:05.732Z,14.6
2023-02-19T17:53:05.714Z,14.55
2023-02-19T17:56:05.875Z,14.4
2023-02-19T17:59:05.670Z,14.4
2023-02-19T18:01:05.808Z,14.42
2023-02-19T18:04:16.011Z,14.48
2023-02-19T18:06:15.999Z,14.5
2023-02-19T18:09:05.712Z,14.53
2023-02-19T18:11:05.672Z,14.47
2023-02-19T18:14:05.699Z,14.48
2023-02-19T18:17:05.779Z,14.51
2023-02-19T18:20:05.699Z,14.52
2023-02-19T18:23:05.691Z,14.53
2023-02-19T18:25:05.708Z,14.54
2023-02-19T18:27:15.997Z,14.55
2023-02-19T18:30:05.704Z,14.56
2023-02-19T18:32:05.785Z,14.53
2023-02-19T18:34:05.718Z,14.49
2023-02-19T18:36:05.731Z,14.45
2023-02-19T18:38:05.721Z,14.48
2023-02-19T18:40:15.997Z,14.5
2023-02-19T18:43:05.705Z,14.52
2023-02-19T18:45:05.708Z,14.52
2023-02-19T18:47:05.736Z,14.55
2023-02-19T18:49:26.259Z,14.54
2023-02-19T18:51:26.358Z,14.54
2023-02-19T18:55:05.747Z,14.53
2023-02-19T18:59:05.727Z,14.51
2023-02-19T19:01:16.033Z,14.44
2023-02-19T19:04:05.683Z,14.33
2023-02-19T19:06:05.770Z,14.3
2023-02-19T19:09:05.690Z,14.32
2023-02-19T19:11:05.703Z,14.36
2023-02-19T19:14:05.693Z,14.42
2023-02-19T19:16:05.768Z,14.41
2023-02-19T19:19:05.686Z,14.37
2023-02-19T19:22:05.718Z,14.33
2023-02-19T19:25:05.707Z,14.3
2023-02-19T19:27:05.712Z,14.27
2023-02-19T19:29:05.704Z,14.3
2023-02-19T19:32:08.090Z,14.35
2023-02-19T19:35:05.759Z,14.38
2023-02-19T19:37:22.836Z,14.37
2023-02-19T19:40:05.664Z,14.34
2023-02-19T19:42:05.710Z,14.35
2023-02-19T19:44:05.708Z,14.38
2023-02-19T19:46:05.781Z,14.38
2023-02-19T19:49:05.690Z,14.34
2023-02-19T19:51:05.725Z,14.37
2023-02-19T19:53:05.731Z,14.29
2023-02-19T19:56:05.726Z,14.25
2023-02-19T19:59:05.764Z,14.26
2023-02-19T20:02:05.736Z,14.18
2023-02-19T20:04:05.743Z,14.18
2023-02-19T20:06:05.741Z,14.21
2023-02-19T20:10:05.711Z,14.28
2023-02-19T20:12:05.844Z,14.29
2023-02-19T20:15:05.781Z,14.26
2023-02-19T20:18:05.702Z,14.27
2023-02-19T20:20:05.729Z,14.27
2023-02-19T20:22:05.752Z,14.28
2023-02-19T20:25:05.743Z,14.28
2023-02-19T20:27:05.757Z,14.27
2023-02-19T20:30:05.799Z,14.19
2023-02-19T20:32:05.727Z,14.17
2023-02-19T20:35:05.858Z,14.18
2023-02-19T20:37:09.278Z,14.19
2023-02-19T20:40:05.749Z,14.15
2023-02-19T20:43:05.732Z,14.1
2023-02-19T20:45:06.830Z,14.07
2023-02-19T20:48:05.694Z,14.08
2023-02-19T20:50:05.734Z,14.06
2023-02-19T20:52:05.815Z,14.05
2023-02-19T20:55:05.729Z,14.06
2023-02-19T20:57:05.759Z,14.09
2023-02-19T21:00:05.742Z,14.07
2023-02-19T21:03:05.820Z,14.05
2023-02-19T21:05:15.973Z,14.07
2023-02-19T21:07:16.012Z,14.07
2023-02-19T21:10:05.758Z,14.09
2023-02-19T21:13:05.720Z,14.03
2023-02-19T21:15:05.724Z,13.98
2023-02-19T21:18:05.724Z,14.01
2023-02-19T21:21:05.723Z,13.97
2023-02-19T21:23:05.769Z,14
2023-02-19T21:26:05.724Z,14
2023-02-19T21:28:05.711Z,13.99
2023-02-19T21:31:05.783Z,13.94
2023-02-19T21:34:05.810Z,13.8
2023-02-19T21:37:15.188Z,13.78
2023-02-19T21:40:05.696Z,13.75
2023-02-19T21:42:05.727Z,13.81
2023-02-19T21:45:05.728Z,13.9
2023-02-19T21:47:05.703Z,13.93
2023-02-19T21:49:05.737Z,13.95
2023-02-19T21:51:05.820Z,13.95
2023-02-19T21:54:05.745Z,13.95
2023-02-19T21:57:05.733Z,13.9
2023-02-19T22:01:05.778Z,13.94
2023-02-19T22:05:05.720Z,13.88
2023-02-19T22:07:05.714Z,13.85
2023-02-19T22:09:16.013Z,13.86
2023-02-19T22:12:36.578Z,13.83
2023-02-19T22:15:16.024Z,13.81
2023-02-19T22:18:05.685Z,13.73
2023-02-19T22:21:05.720Z,13.76
2023-02-19T22:23:06.023Z,13.72
2023-02-19T22:25:05.951Z,13.73
2023-02-19T22:27:15.978Z,13.76
2023-02-19T22:30:05.974Z,13.75
2023-02-19T22:32:05.785Z,13.75
2023-02-19T22:35:05.706Z,13.8
2023-02-19T22:38:16.018Z,13.78
2023-02-19T22:41:05.855Z,13.75
2023-02-19T22:44:05.701Z,13.72
2023-02-19T22:47:05.726Z,13.77
2023-02-19T22:50:05.696Z,13.8
2023-02-19T22:52:05.750Z,13.8
2023-02-19T22:54:05.718Z,13.65
2023-02-19T22:56:05.743Z,13.67
2023-02-19T22:59:05.724Z,13.71
2023-02-19T23:02:05.702Z,13.7
2023-02-19T23:05:05.719Z,13.71
2023-02-19T23:07:05.734Z,13.67
2023-02-19T23:09:05.756Z,13.66
2023-02-19T23:11:05.747Z,13.65
2023-02-19T23:14:05.742Z,13.68
2023-02-19T23:17:05.745Z,13.59
2023-02-19T23:21:05.736Z,13.47
2023-02-19T23:23:16.016Z,13.43
2023-02-19T23:26:05.718Z,13.37
2023-02-19T23:29:05.714Z,13.33
2023-02-19T23:32:05.710Z,13.27
2023-02-19T23:34:05.710Z,13.28
2023-02-19T23:37:05.722Z,13.32
2023-02-19T23:40:05.722Z,13.24
2023-02-19T23:43:05.733Z,13.22
2023-02-19T23:46:05.774Z,13.3
2023-02-19T23:49:05.707Z,13.19
2023-02-19T23:52:05.733Z,13.13
2023-02-19T23:54:05.718Z,13.11
2023-02-19T23:57:05.728Z,13.04
